Milngavie, United Kingdom
Current Conditions -  °F | °C
As of 9:50 PM on Wednesday 28 Jan 2015 (Local Time) from EGPF Reporting Station
Scattered Clouds Scattered Clouds  
Wind Chill: 26°   Ceiling: Unl
Heat Index: 34°   Visibility: 6mi
Dew Point: 32°   Wind: 10mph
Humidity: 93%   Direction: 270°W
Pressure: 29.09"   Gusts: NA
Location:  55.94°N, 4.32°W
Report Text: EGPF 282150Z 27009KT 9999 FEW004 SCT030 01/00 Q0985 RETS RESN
Loading
Personal Weather Stations






























Interactive Weather Map New forecast layout! Learn more

10-Day Weather Forecast

Advertisements
Track Severe Weather on mobile